Terminal Aerodrome Forecast
Issued by NWS

Home | Current Version | Previous Version | Text Only | Print | Product List | Glossary On
Versions: 1 2 3 4 5 6 7 8 9 10 11 12 13 14 15 16 17 18 19
000
FTAK31 PANC 240537
TAFADQ
TAF
PADQ 240537Z 2406/2506 VRB06KT P6SM VCSH OVC035
      TEMPO 2408/2412 6SM -SHRA BKN025
     FM241200 12010KT 6SM -SHRA BKN025
     FM250000 10015KT 5SM -RA OVC012
     FM250500 08015G22KT 3SM -RA BKN005 OVC012=

USA.gov is the U.S. government's official web portal to all federal, state and local government web resources and services.